Portada
METAR-TAF:

METAR-TAF

Aeroports :

Aeroport Internacional de Mitiga

Trípoli, Líbia

latitud: 32-54N, longitud: 13-17E, altitud: 11 m

METAR: manca

Hora: 08:37 (06:37 UTC)

Pronòstic

L'informe es va fer fa 13 hores i 37 minuts, a les 17:00 UTC
Pronòstic vàlid del 21 a les 18 UTC al 22 a les 18 UTC
Vent 10 kt del Est/Nord-Est
Visibilitat 10 km o més
Escasses núvols a una alçada de 3000 ft
Evolucionant progressivament
l' 22 a les 00 UTC al 22 a les 02 UTC
Vent 10 kt del Sud/Sud-Est
Visibilitat: 8000 m
Evolucionant progressivament
l' 22 a les 14 UTC al 22 a les 16 UTC
Vent 2 kt amb direcció variable

TAF: HLLM 211700Z 2118/2218 06010KT 9999 FEW030 BECMG 2200/2202 16010KT 8000 NSC BECMG 2214/2216 VRB02KT

Observacions i pronòstics meteorològics de més de 4000 aeroports (METAR i TAF).

Les estacions disponibles són els punts grocs i vermells al mapa.

Posi el ratolí al punt desitjat per veure el nom de l'estació.

Feu clic per veure les observacions i els pronòstics meteorològics.

Per canviar el mapa: feu clic els botons verds amb una creu de color negre per apropar; al botó verd amb un guió per allunyar la imatge; o en les fletxes verdes per a mapes adjacents.


METAR-TAF: